Hattiesburg Bobby L Chain Municipal Airport
KHBG : now visible

Airfield :











YOU CAN JOIN US ON...

 
LOGIN :

Register | Disclaimer

   EN    FR    IT 

 









Legend :    VFR   Marginal VFR   IFR   Intensive IFR   Very Intensive IFR
Visi :
Ceiling :
>= 8 km
>= 3000ft
5 to 8 km
1000 to 3000 ft
1500m to 5 km
500 to 1000 ft
800 to 1500m
200 to 500 ft
< 800m
< 200 ft
Symbols :   Thunderstorms  Fog  Heavy snow  Heavy precipitations  Wind > 20 kt







- Airport Elevation : 151 ft


KHBG - Hattiesburg Bobby L Chain Municipal

CURRENT METAR :
  • 181753Z AUTO 15013G19KT 10SM BKN036 OVC044 25/18 A2976 RMK AO2 SLP075 T02500183 10261 20183 58039

EXPIRED METARs :
  • 181653Z AUTO 14009KT 10SM FEW030 OVC040 25/18 A2982 RMK AO2 SLP094 T02500183
  • 181553Z AUTO 16010KT 10SM FEW023 SCT030 BKN034 25/19 A2985 RMK AO2 SLP106 T02500189

TAF KHBG
Valid from the 18 at 18:00 until the 19 at 18:00 UTC


181743Z 1818/1918 16014G20KT P6SM BKN035
FM182200 18023G30KT P6SM VCTS OVC020CB
TEMPO 1823/1902 20040G50KT 1SM +TSRA
FM190300 26025G33KT 5SM SHRA OVC015
FM190800 32015G24KT P6SM VCSH OVC015
FM191300 31017G25KT P6SM OVC025
KZHU FIR / North America



MET'MAP, your aeronautical weather chart ! - Copyright ORBIFLY December 2007 - Disclaimer

ORBIFLY MET'MAP TEAM :

Programming & Development : Alexandra Zaïnal
Concept & Development : Baudouin d'Aumeries
Co-Development & Prog : Marc-Olivier Méhu
Technical & hardware support : Manuel Goepfert

Contact : metmap@orbifly.com




SOURCES & CREDITS :

   NOAA       Earth
Advisory